Time;durP1;ratioP1;P1;durP2;ratioP2;P2;SDS_P1;SDS_P2;PMS_P1;PMS_P2;Temp;Humidity;BMP_temperature;BMP_pressure;BME280_temperature;BME280_humidity;BME280_pressure;Samples;Min_cycle;Max_cycle;Signal;HPM_P1;HPM_P2
2021/07/04 00:01:45;;;;;;;0.10;0.10;;;;;;;21.30;48.69;98458.84;5092062;28;20479;-74
2021/07/04 00:04:11;;;;;;;0.00;0.00;;;;;;;21.28;48.82;98461.91;5091978;28;20030;-75
2021/07/04 00:06:36;;;;;;;0.22;0.22;;;;;;;21.28;48.92;98450.25;5092608;28;20106;-75
2021/07/04 00:09:03;;;;;;;0.05;0.05;;;;;;;21.26;48.78;98452.53;5092195;28;20023;-74
2021/07/04 00:11:28;;;;;;;0.80;0.30;;;;;;;21.26;48.83;98456.06;5091683;28;20027;-74
2021/07/04 00:13:53;;;;;;;0.57;0.47;;;;;;;21.24;48.83;98454.84;5092386;28;20479;-74
2021/07/04 00:16:19;;;;;;;0.10;0.10;;;;;;;21.23;49.01;98447.84;5091553;28;20469;-74
2021/07/04 00:18:44;;;;;;;0.30;0.30;;;;;;;21.23;48.90;98442.41;5092066;28;20020;-74
2021/07/04 00:21:10;;;;;;;0.10;0.10;;;;;;;21.20;48.97;98452.06;5091688;28;20024;-74
2021/07/04 00:23:36;;;;;;;0.20;0.20;;;;;;;21.17;49.09;98441.13;5091873;28;20032;-75
2021/07/04 00:26:03;;;;;;;0.25;0.25;;;;;;;21.18;48.97;98445.38;5091908;28;20044;-74
2021/07/04 00:28:29;;;;;;;0.10;0.10;;;;;;;21.17;48.91;98449.28;5091399;28;20031;-74
2021/07/04 00:30:55;;;;;;;0.10;0.10;;;;;;;21.16;49.11;98453.91;5073651;28;20398;-74
2021/07/04 00:33:21;;;;;;;0.10;0.10;;;;;;;21.17;49.00;98454.72;5091208;28;20035;-74
2021/07/04 00:35:47;;;;;;;0.32;0.32;;;;;;;21.15;48.83;98454.28;5091750;28;20032;-75
2021/07/04 00:38:12;;;;;;;0.30;0.30;;;;;;;21.17;48.77;98457.44;5090637;28;20023;-75
2021/07/04 00:40:40;;;;;;;3.15;0.47;;;;;;;21.14;48.97;98458.94;5091967;28;20090;-75
2021/07/04 00:43:06;;;;;;;0.08;0.08;;;;;;;21.17;48.91;98463.66;5091628;28;20124;-75
2021/07/04 00:45:32;;;;;;;0.45;0.45;;;;;;;21.19;49.11;98466.00;5073124;28;20411;-74
2021/07/04 00:47:58;;;;;;;0.60;0.35;;;;;;;21.16;49.15;98467.50;5091581;28;20058;-75
2021/07/04 00:50:26;;;;;;;0.10;0.10;;;;;;;21.17;49.12;98460.94;5091321;28;20106;-75
2021/07/04 00:52:55;;;;;;;;;;;;;;;21.15;49.17;98462.44;5091894;28;20016;-74
2021/07/04 00:55:21;;;;;;;0.10;0.10;;;;;;;21.11;49.16;98456.94;5091449;28;19908;-74
2021/07/04 00:57:46;;;;;;;0.70;0.30;;;;;;;21.07;49.36;98448.72;5091440;28;20402;-74
2021/07/04 01:00:15;;;;;;;0.22;0.22;;;;;;;21.00;49.70;98451.31;5090816;28;20078;-74
2021/07/04 01:02:42;;;;;;;0.10;0.10;;;;;;;20.86;50.18;98440.97;5091254;28;20028;-74
2021/07/04 01:05:11;;;;;;;0.08;0.08;;;;;;;20.81;50.29;98452.09;5091315;28;20498;-74
2021/07/04 01:07:37;;;;;;;0.22;0.22;;;;;;;20.72;50.53;98438.75;5090801;28;20023;-74
2021/07/04 01:10:05;;;;;;;0.00;0.00;;;;;;;20.71;50.68;98445.28;5091203;28;20020;-74
2021/07/04 01:12:30;;;;;;;0.00;0.00;;;;;;;20.67;50.65;98449.88;5072868;28;20039;-74
2021/07/04 01:14:55;;;;;;;0.20;0.20;;;;;;;20.65;50.88;98452.16;5091151;28;20103;-74
2021/07/04 01:17:22;;;;;;;0.00;0.00;;;;;;;20.62;50.69;98447.44;5091147;28;20024;-74
2021/07/04 01:19:48;;;;;;;0.03;0.03;;;;;;;20.55;50.73;98439.16;5091387;28;20028;-74
2021/07/04 01:22:18;;;;;;;0.05;0.05;;;;;;;20.58;51.04;98444.66;5090844;28;20134;-74
2021/07/04 01:24:44;;;;;;;0.20;0.20;;;;;;;20.53;51.00;98441.44;5090703;28;20044;-75
2021/07/04 01:27:10;;;;;;;0.10;0.10;;;;;;;20.49;51.00;98446.78;5090829;28;20031;-74
2021/07/04 01:29:35;;;;;;;0.00;0.00;;;;;;;20.47;51.08;98432.81;5090739;28;20028;-74
2021/07/04 01:32:01;;;;;;;0.00;0.00;;;;;;;20.45;51.19;98438.56;5090874;28;20081;-74
2021/07/04 01:34:26;;;;;;;0.25;0.25;;;;;;;20.43;51.08;98445.50;5090709;28;20121;-74
2021/07/04 01:36:52;;;;;;;0.03;0.03;;;;;;;20.43;51.12;98446.31;5090967;28;20020;-74
2021/07/04 01:39:17;;;;;;;0.17;0.17;;;;;;;20.44;51.15;98442.44;5089345;28;20042;-74
2021/07/04 01:41:42;;;;;;;0.13;0.13;;;;;;;20.45;51.00;98451.38;5090767;28;20031;-74
2021/07/04 01:44:08;;;;;;;0.10;0.10;;;;;;;20.45;51.14;98448.66;5090569;28;20020;-74
2021/07/04 01:46:33;;;;;;;0.10;0.10;;;;;;;20.41;51.14;98443.16;5090382;28;20028;-74
2021/07/04 01:48:59;;;;;;;0.20;0.20;;;;;;;20.40;51.26;98451.66;5090865;28;20526;-74
2021/07/04 01:51:24;;;;;;;0.10;0.10;;;;;;;20.39;51.42;98456.28;5092786;28;20027;-74
2021/07/04 01:53:50;;;;;;;0.03;0.03;;;;;;;20.33;51.31;98457.72;5095141;28;20101;-74
2021/07/04 01:56:15;;;;;;;0.10;0.10;;;;;;;20.31;51.38;98460.81;5094626;28;20438;-74
2021/07/04 01:58:41;;;;;;;0.10;0.10;;;;;;;20.30;51.54;98466.59;5094504;28;20066;-74
2021/07/04 02:01:08;;;;;;;0.40;0.40;;;;;;;20.25;51.76;98464.13;5094687;28;20410;-75
2021/07/04 02:03:34;;;;;;;0.43;0.43;;;;;;;20.24;51.59;98468.00;5076314;28;20036;-74
2021/07/04 02:06:00;;;;;;;0.20;0.20;;;;;;;20.24;51.60;98468.78;5094538;28;20513;-74
2021/07/04 02:08:25;;;;;;;0.10;0.10;;;;;;;20.25;51.83;98470.38;5094399;28;20028;-74
2021/07/04 02:10:51;;;;;;;0.10;0.10;;;;;;;20.24;52.09;98470.72;5094275;28;20031;-74
2021/07/04 02:13:16;;;;;;;0.00;0.00;;;;;;;20.24;51.81;98471.50;5093994;28;20027;-74
2021/07/04 02:15:42;;;;;;;0.32;0.32;;;;;;;20.22;52.00;98476.50;5094213;28;20054;-74
2021/07/04 02:18:16;;;;;;;0.00;0.00;;;;;;;20.17;52.06;98479.50;5094180;28;20036;-74
2021/07/04 02:20:49;;;;;;;0.00;0.00;;;;;;;20.17;52.25;98481.44;5094413;28;20028;-74
2021/07/04 02:23:26;;;;;;;0.35;0.35;;;;;;;20.14;52.25;98483.69;5094291;28;20031;-74
2021/07/04 02:25:53;;;;;;;0.10;0.10;;;;;;;20.10;52.48;98480.13;5094147;28;20473;-74
2021/07/04 02:28:20;;;;;;;0.22;0.22;;;;;;;20.11;52.69;98489.81;5094064;28;20237;-74
2021/07/04 02:30:47;;;;;;;0.00;0.00;;;;;;;20.07;52.82;98486.25;5094203;28;20090;-74
2021/07/04 02:33:15;;;;;;;0.20;0.20;;;;;;;19.99;53.03;98489.94;5094137;28;20099;-74
2021/07/04 02:35:43;;;;;;;0.10;0.10;;;;;;;19.89;53.44;98485.84;5093816;28;20265;-74
2021/07/04 02:38:10;;;;;;;0.10;0.10;;;;;;;19.84;53.83;98488.81;5093989;28;20035;-74
2021/07/04 02:40:36;;;;;;;0.20;0.20;;;;;;;19.73;53.94;98485.81;5093763;28;20039;-74
2021/07/04 02:43:02;;;;;;;0.10;0.10;;;;;;;19.63;54.25;98489.84;5092652;28;20039;-74
2021/07/04 02:45:29;;;;;;;0.20;0.20;;;;;;;19.52;54.69;98486.09;5093666;28;20430;-74
2021/07/04 02:47:54;;;;;;;0.25;0.25;;;;;;;19.43;55.34;98488.19;5093913;28;20154;-74
2021/07/04 02:50:21;;;;;;;0.03;0.03;;;;;;;19.31;55.68;98483.59;5093625;28;20032;-74
2021/07/04 02:52:51;;;;;;;0.47;0.47;;;;;;;19.20;56.14;98478.72;5093885;28;20403;-74
2021/07/04 02:55:18;;;;;;;0.85;0.85;;;;;;;19.13;56.32;98483.16;5093701;28;20085;-73
2021/07/04 02:57:43;;;;;;;0.10;0.10;;;;;;;19.04;56.65;98484.09;5093278;28;20109;-74
2021/07/04 03:00:12;;;;;;;0.40;0.40;;;;;;;19.09;56.40;98487.69;5093530;28;20067;-74
2021/07/04 03:02:38;;;;;;;1.25;0.90;;;;;;;19.23;56.18;98490.78;5091432;28;20395;-74
2021/07/04 03:05:05;;;;;;;0.43;0.43;;;;;;;19.47;55.75;98497.19;5093245;28;20028;-74
2021/07/04 03:07:31;;;;;;;0.10;0.10;;;;;;;19.74;54.74;98509.09;5093162;28;20482;-74
2021/07/04 03:09:56;;;;;;;0.10;0.10;;;;;;;20.01;53.90;98512.09;5093463;28;20081;-74
2021/07/04 03:12:22;;;;;;;0.15;0.15;;;;;;;20.28;52.94;98510.38;5093189;28;20036;-74
2021/07/04 03:14:47;;;;;;;0.10;0.10;;;;;;;20.46;52.19;98516.19;5093325;28;20031;-74
2021/07/04 03:17:13;;;;;;;0.40;0.40;;;;;;;20.68;51.79;98515.84;5093310;28;20022;-74
2021/07/04 03:19:38;;;;;;;0.10;0.10;;;;;;;20.96;51.03;98521.13;5092748;28;20078;-74
2021/07/04 03:22:04;;;;;;;0.10;0.10;;;;;;;21.38;50.66;98519.56;5092868;28;20498;-74
2021/07/04 03:24:29;;;;;;;0.00;0.00;;;;;;;21.85;49.51;98531.25;5092260;28;20112;-74
2021/07/04 03:26:55;;;;;;;0.40;0.40;;;;;;;22.34;48.62;98535.13;5093227;28;20082;-74
2021/07/04 03:29:21;;;;;;;0.10;0.10;;;;;;;22.80;47.45;98535.00;5092802;28;20036;-74
2021/07/04 03:31:47;;;;;;;0.10;0.10;;;;;;;23.20;46.57;98537.41;5092882;28;20491;-75
2021/07/04 03:34:13;;;;;;;0.40;0.40;;;;;;;23.61;46.00;98538.22;5092846;28;20028;-75
2021/07/04 03:36:38;;;;;;;0.10;0.10;;;;;;;23.99;45.03;98543.63;5092639;28;20032;-75
2021/07/04 03:39:05;;;;;;;0.32;0.32;;;;;;;24.36;44.24;98552.84;5092489;28;20564;-75
2021/07/04 03:41:30;;;;;;;0.00;0.00;;;;;;;24.68;43.92;98542.16;5092822;28;20166;-74
2021/07/04 03:43:59;;;;;;;0.00;0.00;;;;;;;25.07;43.21;98547.00;5092724;28;20099;-75
2021/07/04 03:46:25;;;;;;;0.15;0.15;;;;;;;25.33;42.48;98539.63;5074307;28;20028;-75
2021/07/04 03:48:50;;;;;;;0.00;0.00;;;;;;;25.58;41.83;98530.69;5092369;28;20439;-75
2021/07/04 03:51:16;;;;;;;0.00;0.00;;;;;;;25.96;41.19;98539.28;5092914;28;20040;-75
2021/07/04 03:53:41;;;;;;;0.13;0.13;;;;;;;26.21;40.72;98535.78;5092036;28;20032;-75
2021/07/04 03:56:06;;;;;;;0.00;0.00;;;;;;;26.55;40.19;98537.28;5092333;28;20024;-74
2021/07/04 03:58:32;;;;;;;0.35;0.35;;;;;;;26.88;39.07;98540.72;5092223;28;20023;-74
2021/07/04 04:00:57;;;;;;;0.03;0.03;;;;;;;27.35;38.81;98545.97;5092508;28;20107;-74
2021/07/04 04:03:23;;;;;;;0.00;0.00;;;;;;;27.84;37.91;98537.78;5091896;28;20024;-76
2021/07/04 04:05:48;;;;;;;0.00;0.00;;;;;;;28.39;36.89;98544.38;5091990;28;20391;-76
2021/07/04 04:08:14;;;;;;;0.00;0.00;;;;;;;28.86;35.81;98541.13;5092394;28;20020;-76
2021/07/04 04:10:40;;;;;;;0.00;0.00;;;;;;;29.32;35.20;98541.72;5092019;28;20031;-76
2021/07/04 04:13:05;;;;;;;0.00;0.00;;;;;;;29.72;34.15;98541.91;5091400;28;20085;-76
2021/07/04 04:15:31;;;;;;;0.00;0.00;;;;;;;30.02;33.04;98535.50;5091920;28;20032;-76
2021/07/04 04:17:57;;;;;;;0.00;0.00;;;;;;;30.17;33.29;98533.28;5073923;28;20390;-74
2021/07/04 04:20:23;;;;;;;0.00;0.00;;;;;;;30.13;33.12;98537.31;5092077;28;20024;-74
2021/07/04 04:22:49;;;;;;;0.00;0.00;;;;;;;30.24;32.77;98537.91;5091761;28;20028;-74
2021/07/04 04:25:14;;;;;;;0.00;0.00;;;;;;;30.32;33.00;98535.78;5091611;28;20084;-74
2021/07/04 04:27:40;;;;;;;0.10;0.10;;;;;;;30.31;32.52;98539.72;5091823;28;20020;-74
2021/07/04 04:30:07;;;;;;;0.10;0.10;;;;;;;30.56;32.91;98539.28;5091506;28;20109;-74
2021/07/04 04:32:33;;;;;;;0.00;0.00;;;;;;;30.59;32.15;98535.69;5091690;28;20028;-74
2021/07/04 04:34:58;;;;;;;0.00;0.00;;;;;;;30.59;31.94;98532.16;5091845;28;20487;-74
2021/07/04 04:37:24;;;;;;;0.10;0.10;;;;;;;30.58;32.28;98534.13;5073559;28;20020;-74
2021/07/04 04:39:49;;;;;;;0.00;0.00;;;;;;;30.41;32.24;98540.75;5091638;28;20120;-75
2021/07/04 04:42:15;;;;;;;0.10;0.10;;;;;;;30.47;32.26;98533.53;5091714;28;20032;-75
2021/07/04 04:44:40;;;;;;;0.00;0.00;;;;;;;30.53;31.59;98531.09;5091592;28;20031;-74
2021/07/04 04:47:06;;;;;;;0.45;0.17;;;;;;;30.45;31.93;98528.44;5091678;28;20024;-75
2021/07/04 04:49:36;;;;;;;0.10;0.10;;;;;;;30.52;31.80;98526.75;5091179;28;20056;-75
2021/07/04 04:52:04;;;;;;;0.00;0.00;;;;;;;30.54;32.18;98532.66;5091425;28;20103;-75
2021/07/04 04:54:30;;;;;;;0.20;0.20;;;;;;;30.58;32.38;98528.63;5091204;28;20040;-75
2021/07/04 04:56:56;;;;;;;0.08;0.08;;;;;;;30.68;31.91;98529.59;5091619;28;20023;-74
2021/07/04 04:59:21;;;;;;;0.00;0.00;;;;;;;30.77;31.86;98534.53;5091379;28;20028;-75
2021/07/04 05:01:47;;;;;;;0.35;0.22;;;;;;;30.81;31.91;98541.56;5072851;28;20130;-75
2021/07/04 05:04:12;;;;;;;0.00;0.00;;;;;;;30.89;31.87;98541.41;5091477;28;20395;-75
2021/07/04 05:06:37;;;;;;;0.22;0.10;;;;;;;30.99;31.81;98543.16;5091093;28;20405;-75
2021/07/04 05:09:04;;;;;;;0.10;0.10;;;;;;;30.97;31.74;98543.59;5091242;28;20046;-75
2021/07/04 05:11:29;;;;;;;0.35;0.10;;;;;;;30.93;31.58;98548.41;5091070;28;20086;-75
2021/07/04 05:13:55;;;;;;;0.25;0.25;;;;;;;30.93;31.22;98545.66;5091207;28;20475;-74
2021/07/04 05:16:20;;;;;;;0.00;0.00;;;;;;;31.08;31.19;98554.44;5090927;28;20049;-74
2021/07/04 05:18:45;;;;;;;0.20;0.20;;;;;;;31.23;31.51;98559.66;5090944;28;20028;-74
2021/07/04 05:21:11;;;;;;;0.00;0.00;;;;;;;31.27;31.33;98563.09;5091043;28;20474;-74
2021/07/04 05:23:37;;;;;;;0.00;0.00;;;;;;;31.29;30.83;98549.66;5090973;28;20492;-74
2021/07/04 05:26:02;;;;;;;0.00;0.00;;;;;;;31.25;30.99;98559.97;5090625;28;20051;-75
2021/07/04 05:28:28;;;;;;;0.00;0.00;;;;;;;31.28;30.89;98559.91;5090898;28;20451;-74
2021/07/04 05:30:55;;;;;;;0.00;0.00;;;;;;;31.22;31.41;98574.66;5091061;28;20028;-76
2021/07/04 05:33:21;;;;;;;0.00;0.00;;;;;;;31.38;30.75;98571.91;5090936;28;20032;-74
2021/07/04 05:35:46;;;;;;;0.05;0.05;;;;;;;31.57;31.17;98564.78;5090395;28;20107;-75
2021/07/04 05:38:22;;;;;;;0.20;0.17;;;;;;;31.53;30.44;98566.06;5090992;28;20063;-74
2021/07/04 05:40:50;;;;;;;0.10;0.10;;;;;;;31.61;30.63;98573.75;5090692;28;20111;-75
2021/07/04 05:43:15;;;;;;;;;;;;;;;31.70;30.18;98564.91;5090961;28;20040;-75
2021/07/04 05:45:41;;;;;;;0.00;0.00;;;;;;;31.74;30.42;98562.84;5090584;28;19912;-75
2021/07/04 05:48:07;;;;;;;0.20;0.20;;;;;;;31.99;30.16;98572.50;5091081;28;20097;-74
2021/07/04 05:50:32;;;;;;;0.10;0.10;;;;;;;32.08;30.26;98567.13;5090594;28;20099;-74
2021/07/04 05:52:58;;;;;;;0.03;0.03;;;;;;;32.16;29.74;98562.19;5090839;28;20450;-74
2021/07/04 05:55:23;;;;;;;0.00;0.00;;;;;;;32.15;30.17;98563.38;5091001;28;20068;-74
2021/07/04 05:57:49;;;;;;;0.10;0.10;;;;;;;32.25;30.05;98564.34;5090184;28;20491;-75
2021/07/04 06:00:15;;;;;;;0.22;0.22;;;;;;;32.23;29.93;98559.25;5090584;28;20028;-75
2021/07/04 06:02:41;;;;;;;0.00;0.00;;;;;;;32.22;30.22;98566.00;5090489;28;20024;-75
2021/07/04 06:05:08;;;;;;;0.10;0.10;;;;;;;32.26;29.90;98563.16;5090623;28;20046;-75
2021/07/04 06:07:34;;;;;;;0.00;0.00;;;;;;;32.23;30.08;98564.78;5090444;28;20093;-75
2021/07/04 06:10:00;;;;;;;0.00;0.00;;;;;;;32.31;30.21;98559.06;5090613;28;20569;-75
2021/07/04 06:12:25;;;;;;;0.10;0.10;;;;;;;32.50;29.60;98547.09;5090669;28;20372;-75
2021/07/04 06:14:50;;;;;;;0.10;0.10;;;;;;;32.60;28.97;98548.00;5090123;28;20039;-75
2021/07/04 06:17:16;;;;;;;0.13;0.13;;;;;;;32.52;28.58;98557.72;5090498;28;20368;-75
2021/07/04 06:19:41;;;;;;;0.00;0.00;;;;;;;32.68;29.24;98548.59;5089270;28;20028;-75
2021/07/04 06:22:07;;;;;;;0.10;0.10;;;;;;;32.61;28.66;98541.25;5090448;28;20479;-75
2021/07/04 06:24:32;;;;;;;0.20;0.20;;;;;;;32.38;28.92;98556.13;5089888;28;20028;-75
2021/07/04 06:26:58;;;;;;;0.20;0.20;;;;;;;32.39;29.10;98552.16;5090581;28;20066;-74
2021/07/04 06:29:23;;;;;;;0.05;0.05;;;;;;;32.35;29.29;98540.41;5090304;28;20070;-75
2021/07/04 06:31:48;;;;;;;0.10;0.10;;;;;;;32.30;29.27;98538.16;5089809;28;20476;-75
2021/07/04 06:34:14;;;;;;;0.13;0.13;;;;;;;32.31;29.59;98545.25;5090101;28;20032;-75
2021/07/04 06:36:39;;;;;;;0.10;0.10;;;;;;;32.22;29.74;98537.56;5090700;28;20119;-75
2021/07/04 06:39:05;;;;;;;0.00;0.00;;;;;;;32.18;29.42;98540.41;5094000;28;20016;-75
2021/07/04 06:41:30;;;;;;;0.05;0.05;;;;;;;32.02;29.52;98543.19;5093887;28;20112;-75
2021/07/04 06:43:56;;;;;;;0.28;0.28;;;;;;;31.95;29.49;98529.56;5093563;28;20016;-75
2021/07/04 06:46:21;;;;;;;0.63;0.63;;;;;;;31.83;30.08;98529.03;5093951;28;20035;-75
2021/07/04 06:48:47;;;;;;;0.22;0.20;;;;;;;31.81;29.83;98536.22;5093607;28;20070;-75
2021/07/04 06:51:12;;;;;;;0.00;0.00;;;;;;;31.63;29.93;98537.41;5093805;28;20529;-75
2021/07/04 06:53:38;;;;;;;0.00;0.00;;;;;;;31.51;29.93;98532.59;5093542;28;20020;-76
2021/07/04 06:56:04;;;;;;;0.32;0.20;;;;;;;31.49;29.78;98529.47;5093678;28;20035;-76
2021/07/04 06:58:30;;;;;;;0.00;0.00;;;;;;;31.41;29.32;98526.88;5093663;28;20537;-75
2021/07/04 07:00:55;;;;;;;0.43;0.43;;;;;;;31.30;29.79;98529.09;5093084;28;20115;-76
2021/07/04 07:03:21;;;;;;;0.00;0.00;;;;;;;31.20;30.50;98521.81;5093567;28;20408;-74
2021/07/04 07:05:46;;;;;;;0.25;0.25;;;;;;;31.01;31.01;98510.38;5093171;28;20119;-74
2021/07/04 07:08:11;;;;;;;1.45;0.32;;;;;;;30.90;30.77;98512.59;5075250;28;20032;-74
2021/07/04 07:10:37;;;;;;;0.00;0.00;;;;;;;30.62;30.83;98512.00;5093155;28;20475;-76
2021/07/04 07:13:04;;;;;;;0.15;0.15;;;;;;;30.44;31.46;98506.78;5093384;28;20024;-74
2021/07/04 07:15:29;;;;;;;0.20;0.20;;;;;;;30.21;31.75;98511.16;5093632;28;20506;-74
2021/07/04 07:17:55;;;;;;;0.00;0.00;;;;;;;30.10;32.03;98507.81;5093328;28;20036;-76
2021/07/04 07:20:20;;;;;;;0.00;0.00;;;;;;;29.95;32.53;98499.81;5093193;28;20442;-76
2021/07/04 07:22:46;;;;;;;0.40;0.40;;;;;;;29.82;32.78;98493.31;5092715;28;20024;-74
2021/07/04 07:25:12;;;;;;;0.10;0.10;;;;;;;29.73;32.40;98491.09;5092865;28;20501;-76
2021/07/04 07:27:38;;;;;;;0.10;0.10;;;;;;;29.65;32.42;98501.47;5092926;28;20035;-75
2021/07/04 07:30:07;;;;;;;0.00;0.00;;;;;;;29.49;32.12;98491.09;5093076;28;20399;-75
2021/07/04 07:32:32;;;;;;;0.10;0.08;;;;;;;29.36;32.25;98495.63;5093101;28;20032;-75
2021/07/04 07:34:57;;;;;;;0.20;0.20;;;;;;;29.22;32.89;98488.31;5092818;28;20479;-75
2021/07/04 07:37:24;;;;;;;0.70;0.60;;;;;;;29.13;33.09;98480.59;5093261;28;20020;-75
2021/07/04 07:39:50;;;;;;;0.00;0.00;;;;;;;29.04;32.91;98472.06;5092623;28;20028;-75
2021/07/04 07:42:16;;;;;;;0.00;0.00;;;;;;;28.89;33.74;98488.81;5092787;28;20052;-75
2021/07/04 07:44:41;;;;;;;0.00;0.00;;;;;;;28.76;33.36;98479.53;5092542;28;20067;-75
2021/07/04 07:47:08;;;;;;;0.10;0.10;;;;;;;28.69;33.66;98476.88;5092631;28;20024;-76
2021/07/04 07:49:33;;;;;;;0.10;0.10;;;;;;;28.71;33.34;98475.28;5092473;28;20032;-76
2021/07/04 07:51:59;;;;;;;0.00;0.00;;;;;;;28.75;33.39;98469.72;5091969;28;20188;-76
2021/07/04 07:54:26;;;;;;;0.00;0.00;;;;;;;28.79;33.72;98470.44;5092584;28;20060;-75
2021/07/04 07:56:51;;;;;;;0.28;0.28;;;;;;;28.85;34.01;98474.28;5092012;28;20020;-74
2021/07/04 07:59:20;;;;;;;0.00;0.00;;;;;;;28.89;33.50;98471.50;5092492;28;20035;-76
2021/07/04 08:01:46;;;;;;;0.00;0.00;;;;;;;28.89;33.34;98463.25;5092245;28;20024;-76
2021/07/04 08:04:11;;;;;;;0.52;0.52;;;;;;;28.92;33.88;98467.94;5091836;28;20406;-74
2021/07/04 08:06:39;;;;;;;0.10;0.10;;;;;;;28.96;33.70;98457.63;5092166;28;20031;-74
2021/07/04 08:09:05;;;;;;;0.00;0.00;;;;;;;28.96;33.66;98454.88;5092330;28;20107;-73
2021/07/04 08:11:31;;;;;;;0.10;0.10;;;;;;;28.84;33.21;98464.47;5092550;28;20067;-74
2021/07/04 08:13:57;;;;;;;0.10;0.10;;;;;;;28.77;33.53;98470.06;5091978;28;20052;-74
2021/07/04 08:16:22;;;;;;;0.15;0.15;;;;;;;28.75;33.06;98458.72;5092066;28;20024;-74
2021/07/04 08:18:48;;;;;;;1.75;0.98;;;;;;;28.68;32.78;98456.81;5091919;28;20031;-75
2021/07/04 08:21:13;;;;;;;0.30;0.30;;;;;;;28.68;33.56;98450.53;5092056;28;20028;-74
2021/07/04 08:23:39;;;;;;;0.57;0.57;;;;;;;28.64;33.76;98464.31;5092092;28;20020;-74
2021/07/04 08:26:04;;;;;;;0.22;0.22;;;;;;;28.66;33.41;98452.91;5091817;28;20048;-74
2021/07/04 08:28:30;;;;;;;0.30;0.30;;;;;;;28.66;33.97;98461.16;5091981;28;20032;-74
2021/07/04 08:30:55;;;;;;;0.00;0.00;;;;;;;28.67;33.82;98454.47;5091983;28;20036;-74
2021/07/04 08:33:20;;;;;;;0.32;0.32;;;;;;;28.65;33.63;98451.34;5091518;28;20020;-75
2021/07/04 08:35:46;;;;;;;0.00;0.00;;;;;;;28.62;33.20;98455.69;5091384;28;20617;-74
2021/07/04 08:38:11;;;;;;;0.17;0.17;;;;;;;28.60;33.27;98458.09;5091712;28;20103;-76
2021/07/04 08:40:37;;;;;;;0.10;0.10;;;;;;;28.58;33.17;98455.75;5091605;28;20024;-74
2021/07/04 08:43:04;;;;;;;0.52;0.32;;;;;;;28.60;33.41;98463.59;5091516;28;20052;-74
2021/07/04 08:45:37;;;;;;;0.10;0.10;;;;;;;28.60;33.37;98458.09;5091680;28;20486;-76
2021/07/04 08:48:04;;;;;;;0.00;0.00;;;;;;;28.62;33.78;98457.69;5091155;28;20271;-75
2021/07/04 08:50:29;;;;;;;0.13;0.13;;;;;;;28.67;33.99;98457.97;5091587;28;20034;-75
2021/07/04 08:52:58;;;;;;;0.00;0.00;;;;;;;28.69;32.56;98458.38;5091371;28;20099;-75
2021/07/04 08:55:24;;;;;;;0.25;0.25;;;;;;;28.77;32.68;98447.28;5091487;28;20553;-75
2021/07/04 08:57:49;;;;;;;0.08;0.08;;;;;;;28.79;33.31;98440.19;5091199;28;20047;-75
2021/07/04 09:00:17;;;;;;;0.00;0.00;;;;;;;28.86;33.41;98444.81;5090992;28;20050;-75
2021/07/04 09:02:43;;;;;;;0.30;0.30;;;;;;;28.91;33.42;98450.63;5091173;28;20510;-75
2021/07/04 09:05:10;;;;;;;0.00;0.00;;;;;;;28.96;32.98;98446.63;5090056;28;20475;-76
2021/07/04 09:07:38;;;;;;;0.35;0.32;;;;;;;29.01;33.30;98440.66;5091337;28;20020;-75
2021/07/04 09:10:09;;;;;;;0.08;0.08;;;;;;;29.02;34.35;98446.94;5089675;28;20039;-75
2021/07/04 09:12:40;;;;;;;0.00;0.00;;;;;;;29.06;33.75;98448.47;5091016;28;20028;-75
2021/07/04 09:15:17;;;;;;;0.03;0.03;;;;;;;29.11;33.40;98449.16;5091003;28;20453;-74
2021/07/04 09:17:46;;;;;;;0.00;0.00;;;;;;;29.13;33.23;98444.03;5090983;28;20391;-76
2021/07/04 09:20:34;;;;;;;0.10;0.10;;;;;;;29.20;33.49;98430.94;5091223;28;20032;-75
2021/07/04 09:23:00;;;;;;;0.00;0.00;;;;;;;29.26;32.88;98450.53;5090984;28;20034;-75
2021/07/04 09:25:29;;;;;;;1.23;0.83;;;;;;;29.28;32.91;98442.59;5090710;28;20577;-75
2021/07/04 09:28:13;;;;;;;0.00;0.00;;;;;;;29.34;33.25;98440.19;5090969;28;20028;-75
2021/07/04 09:30:47;;;;;;;0.00;0.00;;;;;;;29.39;32.73;98440.50;5091089;28;20020;-75
2021/07/04 09:33:14;;;;;;;0.00;0.00;;;;;;;29.44;33.28;98432.94;5090946;28;20024;-75
2021/07/04 09:35:50;;;;;;;0.20;0.10;;;;;;;29.47;33.23;98421.88;5091015;28;20032;-75
2021/07/04 09:38:16;;;;;;;0.00;0.00;;;;;;;29.49;33.80;98433.25;5072931;28;20036;-75
2021/07/04 09:40:43;;;;;;;0.00;0.00;;;;;;;29.55;33.69;98441.81;5090977;28;20028;-75
2021/07/04 09:43:16;;;;;;;0.00;0.00;;;;;;;29.66;33.22;98436.13;5090965;28;20032;-75
2021/07/04 09:45:46;;;;;;;0.32;0.32;;;;;;;29.72;32.61;98434.44;5090875;28;20078;-75
2021/07/04 09:48:14;;;;;;;0.10;0.10;;;;;;;29.82;32.40;98421.66;5090951;28;20467;-75
2021/07/04 09:50:41;;;;;;;0.00;0.00;;;;;;;29.87;32.41;98419.19;5090933;28;20375;-75
2021/07/04 09:53:07;;;;;;;0.38;0.38;;;;;;;29.82;32.45;98408.66;5089661;28;20463;-75
2021/07/04 09:55:33;;;;;;;0.10;0.10;;;;;;;29.85;31.72;98409.81;5090512;28;20036;-75
2021/07/04 09:58:05;;;;;;;0.00;0.00;;;;;;;29.86;31.82;98403.09;5090383;28;20046;-75
2021/07/04 10:00:36;;;;;;;0.65;0.65;;;;;;;29.90;31.92;98408.53;5090756;28;20028;-76
2021/07/04 10:03:16;;;;;;;0.10;0.10;;;;;;;29.93;31.64;98404.94;5090459;28;20029;-76
2021/07/04 10:05:45;;;;;;;0.10;0.10;;;;;;;29.86;31.23;98403.09;5090767;28;20024;-76
2021/07/04 10:08:17;;;;;;;0.50;0.50;;;;;;;29.83;31.71;98404.72;5090767;28;20028;-76
2021/07/04 10:10:43;;;;;;;0.00;0.00;;;;;;;29.83;31.65;98396.44;5090713;28;20081;-76
2021/07/04 10:13:09;;;;;;;0.05;0.05;;;;;;;29.85;31.36;98391.28;5093621;28;20406;-75
2021/07/04 10:15:35;;;;;;;0.10;0.10;;;;;;;29.74;32.07;98395.44;5094422;28;20027;-74
2021/07/04 10:18:01;;;;;;;0.13;0.13;;;;;;;29.75;31.99;98391.47;5094066;28;20032;-74
2021/07/04 10:20:28;;;;;;;0.20;0.13;;;;;;;29.74;31.61;98398.22;5094431;28;20056;-75
2021/07/04 10:22:53;;;;;;;0.00;0.00;;;;;;;29.78;31.66;98388.66;5094242;28;20108;-75
2021/07/04 10:25:19;;;;;;;0.00;0.00;;;;;;;29.73;32.03;98394.66;5093986;28;20054;-75
2021/07/04 10:27:49;;;;;;;0.20;0.20;;;;;;;29.64;32.34;98397.97;5094187;28;20109;-75
2021/07/04 10:30:15;;;;;;;0.00;0.00;;;;;;;29.61;32.56;98400.78;5094245;28;20042;-75
2021/07/04 10:33:15;;;;;;;1.08;0.43;;;;;;;29.60;31.73;98391.75;5094201;28;20062;-75
2021/07/04 10:36:02;;;;;;;0.00;0.00;;;;;;;29.59;31.72;98387.44;5094139;28;20032;-75
2021/07/04 10:38:43;;;;;;;0.30;0.30;;;;;;;29.73;31.88;98388.38;5094201;28;20028;-76
2021/07/04 10:41:11;;;;;;;0.00;0.00;;;;;;;29.77;31.64;98381.59;5093769;28;20028;-75
2021/07/04 10:44:04;;;;;;;0.00;0.00;;;;;;;29.84;31.45;98384.19;5094076;28;20024;-75
2021/07/04 10:46:45;;;;;;;0.15;0.15;;;;;;;29.76;31.51;98388.31;5094304;28;20081;-75
2021/07/04 10:49:12;;;;;;;0.63;0.55;;;;;;;29.83;31.16;98381.88;5093946;28;20016;-75
2021/07/04 10:51:53;;;;;;;0.00;0.00;;;;;;;29.86;31.22;98387.31;5093620;28;20032;-75
2021/07/04 10:54:41;;;;;;;0.17;0.17;;;;;;;29.81;30.77;98384.28;5092546;28;20028;-75
2021/07/04 10:57:32;;;;;;;1.10;0.32;;;;;;;29.81;31.74;98381.50;5093599;28;20475;-75
2021/07/04 11:00:00;;;;;;;0.10;0.10;;;;;;;29.91;30.93;98380.56;5093246;28;20526;-75
2021/07/04 11:02:41;;;;;;;0.30;0.30;;;;;;;29.84;30.10;98373.19;5093395;28;20089;-75
2021/07/04 11:05:12;;;;;;;0.10;0.10;;;;;;;29.81;30.40;98359.47;5093309;28;20021;-75
2021/07/04 11:07:52;;;;;;;0.10;0.10;;;;;;;29.83;30.05;98366.13;5093563;28;20023;-75
2021/07/04 11:10:20;;;;;;;0.03;0.03;;;;;;;29.90;30.55;98373.50;5093576;28;20051;-75
2021/07/04 11:12:47;;;;;;;0.47;0.35;;;;;;;29.96;30.95;98366.28;5093385;28;20028;-75
2021/07/04 11:15:13;;;;;;;1.90;0.47;;;;;;;29.96;30.56;98366.28;5093218;28;20059;-75
2021/07/04 11:18:00;;;;;;;0.00;0.00;;;;;;;30.06;30.44;98361.75;5093466;28;20519;-75
2021/07/04 11:20:41;;;;;;;0.70;0.38;;;;;;;30.14;30.63;98351.38;5093642;28;20551;-75
2021/07/04 11:23:09;;;;;;;0.00;0.00;;;;;;;30.23;29.04;98354.31;5092653;28;20388;-75
2021/07/04 11:25:43;;;;;;;0.10;0.10;;;;;;;30.34;29.18;98357.63;5093019;28;20054;-75
2021/07/04 11:28:20;;;;;;;0.10;0.10;;;;;;;30.37;29.98;98353.25;5093004;28;20028;-74
2021/07/04 11:30:45;;;;;;;0.00;0.00;;;;;;;30.44;29.79;98355.84;5093478;28;20031;-75
2021/07/04 11:33:25;;;;;;;0.20;0.20;;;;;;;30.50;28.99;98356.94;5092477;28;20487;-74
2021/07/04 11:35:53;;;;;;;0.20;0.20;;;;;;;30.57;30.30;98352.47;5092824;28;20028;-76